M V Legend II — HP5804 — position and weather

sailwx.info

Track history (hours):
 
Tides and Currents Weather Stations Pressure Air Temp Water Temp Dewpoint Dewpoint Depression Visibility Wind Speed Wind Dir Waves Ship Positions

M V Legend II

Last reported at 2018-Feb-16 07:43 UTC. Time now 2018-Feb-19 14:19 UTC.
Position N 25°39' W 079°35'.

Length 49 m.

MMSI: 370375000.

Date/timePositionNaut miles runAvg speedWind from/ knotsBaromVisibWave heightAir tempDewpointWater temp
2018-Feb-16 07:43N 25°39' W 079°35'1 6.0
2018-Feb-16 07:29N 25°39' W 079°37'3 6.1
2018-Feb-16 07:00N 25°40' W 079°40'3 6.5
2018-Feb-16 06:29N 25°41' W 079°44'3 6.3
2018-Feb-16 06:00N 25°42' W 079°47'3 5.9
2018-Feb-16 05:30N 25°43' W 079°50'3 5.2
2018-Feb-16 05:00N 25°44' W 079°53'3 5.6
2018-Feb-16 04:30N 25°44' W 079°56'3 5.8
2018-Feb-16 04:00N 25°45' W 079°59'3 5.8
2018-Feb-16 03:30N 25°46' W 080°02'3 6.8
2018-Feb-16 03:01N 25°46' W 080°06'4 7.9
2018-Feb-16 02:30N 25°46' W 080°10'2 3.5
2018-Feb-16 02:01N 25°46' W 080°12'2 3.3
2018-Feb-16 01:31N 25°47' W 080°14'1 2.6
2018-Feb-16 01:00N 25°48' W 080°15'0 0.0
2018-Feb-16 00:31N 25°48' W 080°15'0 0.0
2018-Feb-16 00:00N 25°48' W 080°15'0 0.0
2018-Feb-15 23:31N 25°48' W 080°15'0 0.0
2018-Feb-15 23:00N 25°48' W 080°15'0 0.0
2018-Feb-15 22:30N 25°48' W 080°15'0 0.0
2018-Feb-15 22:00N 25°48' W 080°15'0 0.0
2018-Feb-15 21:30N 25°48' W 080°15'0 0.0
2018-Feb-15 21:00N 25°48' W 080°15'0 0.0
2018-Feb-15 20:30N 25°48' W 080°15'0 0.0
2018-Feb-15 20:01N 25°48' W 080°15'0 0.0
2018-Feb-15 19:30N 25°48' W 080°15'0 0.0
2018-Feb-15 19:00N 25°48' W 080°15'0 0.0
2018-Feb-15 18:31N 25°48' W 080°15'0 0.0
2018-Feb-15 18:00N 25°48' W 080°15'0 0.0
2018-Feb-15 17:30N 25°48' W 080°15'0 0.0
2018-Feb-15 17:00N 25°48' W 080°15'0 0.0
2018-Feb-15 16:30N 25°48' W 080°15'0 0.0
2018-Feb-15 16:00N 25°48' W 080°15'0 0.0
2018-Feb-15 15:30N 25°48' W 080°15'0 0.0
2018-Feb-15 15:01N 25°48' W 080°15'0 0.0
2018-Feb-15 14:31N 25°48' W 080°15'0 0.0
2018-Feb-15 14:00N 25°48' W 080°15'0 0.0
2018-Feb-15 13:31N 25°48' W 080°15'0 0.0
2018-Feb-15 13:00N 25°48' W 080°15'0 0.0
2018-Feb-15 12:30N 25°48' W 080°15'0 0.0
2018-Feb-15 12:01N 25°48' W 080°15'0 0.0
2018-Feb-15 11:30N 25°48' W 080°15'0 0.0
2018-Feb-15 11:00N 25°48' W 080°15'0 0.0
2018-Feb-15 10:31N 25°48' W 080°15'0 0.0
2018-Feb-15 10:01N 25°48' W 080°15'0 0.0
2018-Feb-15 09:31N 25°48' W 080°15'0 0.0
2018-Feb-15 09:00N 25°48' W 080°15'0 0.0
2018-Feb-15 08:30N 25°48' W 080°15'0 0.0
2018-Feb-15 08:00N 25°48' W 080°15'0 0.0
2018-Feb-15 07:30N 25°48' W 080°15'0 0.0
2018-Feb-15 07:00N 25°48' W 080°15'0 0.0
2018-Feb-15 06:31N 25°48' W 080°15'0 0.0
2018-Feb-15 06:00N 25°48' W 080°15'0 0.0
2018-Feb-15 05:30N 25°48' W 080°15'0 0.0
2018-Feb-15 05:00N 25°48' W 080°15'0 0.0
2018-Feb-15 04:30N 25°48' W 080°15'0 0.0
2018-Feb-15 04:00N 25°48' W 080°15'0 0.0
2018-Feb-15 03:30N 25°48' W 080°15'0 0.0
2018-Feb-15 03:01N 25°48' W 080°15'0 0.0
2018-Feb-15 02:30N 25°48' W 080°15'0 0.0
2018-Feb-15 02:00N 25°48' W 080°15'0 0.0
2018-Feb-15 01:30N 25°48' W 080°15'0 0.0
2018-Feb-15 01:00N 25°48' W 080°15'0 0.0
2018-Feb-15 00:31N 25°48' W 080°15'0 0.0
2018-Feb-15 00:01N 25°48' W 080°15'0 0.0
2018-Feb-14 23:31N 25°48' W 080°15'0 0.0
2018-Feb-14 23:00N 25°48' W 080°15'0 0.0
2018-Feb-14 22:31N 25°48' W 080°15'1 1.6
2018-Feb-14 22:01N 25°47' W 080°14'2 3.9
2018-Feb-14 21:31N 25°47' W 080°12'1 2.7
2018-Feb-14 21:01N 25°46' W 080°11'2 3.6
2018-Feb-14 20:31N 25°46' W 080°09'4 8.0
2018-Feb-14 20:01N 25°46' W 080°04'510.0
2018-Feb-14 19:30N 25°47' W 079°59'5 9.9
2018-Feb-14 19:01N 25°47' W 079°53'510.1
2018-Feb-14 18:30N 25°48' W 079°48'510.3
2018-Feb-14 18:00N 25°48' W 079°42'510.5
2018-Feb-14 17:30N 25°49' W 079°36'510.5
2018-Feb-14 17:00N 25°49' W 079°30'189 9.9
2018-Feb-13 21:54N 24°12' W 076°32'4 9.7
2018-Feb-13 21:30N 24°10' W 076°28'1 2.0
2018-Feb-13 21:01N 24°10' W 076°27'0 0.3
2018-Feb-13 20:31N 24°10' W 076°27'0 0.0
2018-Feb-13 20:00N 24°10' W 076°27'0 0.0
2018-Feb-13 19:31N 24°10' W 076°27'0 0.0
2018-Feb-13 19:00N 24°10' W 076°27'0 0.0
2018-Feb-13 18:30N 24°10' W 076°27'0 0.0
2018-Feb-13 18:01N 24°10' W 076°27'0 0.0
2018-Feb-13 17:30N 24°10' W 076°27'0 0.0
2018-Feb-13 17:01N 24°10' W 076°27'0 0.0
2018-Feb-13 16:29N 24°10' W 076°27'0 0.0
2018-Feb-13 16:00N 24°10' W 076°27'0 0.0
2018-Feb-13 15:30N 24°10' W 076°27'0 0.0
2018-Feb-13 15:01N 24°10' W 076°27'0 0.0
2018-Feb-13 14:22N 24°10' W 076°27'0 0.0
2018-Feb-13 14:00N 24°10' W 076°27'0 0.0
2018-Feb-13 13:31N 24°10' W 076°27'0 0.0
2018-Feb-13 12:48N 24°10' W 076°27'0 0.0
2018-Feb-13 12:30N 24°10' W 076°27'0 0.0
2018-Feb-13 12:00N 24°10' W 076°27'0 1.0
2018-Feb-13 11:30N 24°10' W 076°27'1 1.8
2018-Feb-13 11:00N 24°10' W 076°28'0 0.0
2018-Feb-13 10:31N 24°10' W 076°28'0 0.0
2018-Feb-13 10:00N 24°10' W 076°28'0 0.0
2018-Feb-13 09:30N 24°10' W 076°28'0 0.0
2018-Feb-13 09:00N 24°10' W 076°28'0 0.0
2018-Feb-13 08:31N 24°10' W 076°28'0 0.0
2018-Feb-13 08:01N 24°10' W 076°28'0 0.0
2018-Feb-13 07:30N 24°10' W 076°28'0 0.0
2018-Feb-13 07:01N 24°10' W 076°28'0 0.0
2018-Feb-13 06:31N 24°10' W 076°28'0 0.0
2018-Feb-13 06:01N 24°10' W 076°28'0 0.0
2018-Feb-13 05:31N 24°10' W 076°28'0 0.0
2018-Feb-13 05:01N 24°10' W 076°28'0 0.0
2018-Feb-13 04:31N 24°10' W 076°28'0 0.0
2018-Feb-13 04:00N 24°10' W 076°28'0 0.0
2018-Feb-13 03:24N 24°10' W 076°28'0 0.0
2018-Feb-13 03:00N 24°10' W 076°28'0 0.0
2018-Feb-13 02:28N 24°10' W 076°28'0 0.0
2018-Feb-13 01:59N 24°10' W 076°28'0 0.0
2018-Feb-13 01:30N 24°10' W 076°28'0 0.0
2018-Feb-13 01:00N 24°10' W 076°28'5 9.2
2018-Feb-13 00:30N 24°13' W 076°33'4 6.1
2018-Feb-12 23:48N 24°17' W 076°34'3 9.4
2018-Feb-12 23:30N 24°18' W 076°31'  
2018-Feb-10 10:27N 25°39' W 079°35'4 9.0
2018-Feb-10 09:59N 25°40' W 079°40'4 8.3
2018-Feb-10 09:30N 25°41' W 079°44'4 8.1
2018-Feb-10 09:00N 25°42' W 079°48'4 8.1
2018-Feb-10 08:30N 25°43' W 079°53'4 7.9
2018-Feb-10 08:00N 25°44' W 079°57'4 7.7
2018-Feb-10 07:30N 25°45' W 080°01'4 8.6
2018-Feb-10 07:00N 25°46' W 080°06'4 8.7
2018-Feb-10 06:30N 25°46' W 080°11'1 2.6
2018-Feb-10 06:01N 25°46' W 080°12'1 2.4
2018-Feb-10 05:30N 25°47' W 080°13'1 1.9
2018-Feb-10 05:00N 25°47' W 080°14'1 1.9
2018-Feb-10 04:30N 25°48' W 080°15'0 0.0
2018-Feb-10 04:00N 25°48' W 080°15'0 0.0
2018-Feb-10 03:30N 25°48' W 080°15'0 0.0
2018-Feb-10 02:59N 25°48' W 080°15'0 0.0
2018-Feb-10 02:30N 25°48' W 080°15'0 0.0
2018-Feb-10 02:00N 25°48' W 080°15'0 0.0
2018-Feb-10 01:29N 25°48' W 080°15'0 0.0
2018-Feb-10 01:00N 25°48' W 080°15'0 0.0
2018-Feb-10 00:30N 25°48' W 080°15'0 0.0
2018-Feb-10 00:01N 25°48' W 080°15'0 0.0
2018-Feb-09 23:30N 25°48' W 080°15'0 0.0
2018-Feb-09 23:00N 25°48' W 080°15'0 0.0
2018-Feb-09 22:46N 25°48' W 080°15'0 0.0
2018-Feb-09 20:00N 25°48' W 080°15'0 0.0
2018-Feb-09 19:31N 25°48' W 080°15'0 0.0
2018-Feb-09 19:00N 25°48' W 080°15'0 0.0
2018-Feb-09 17:31N 25°48' W 080°15'0 0.0
2018-Feb-09 16:30N 25°48' W 080°15'0 0.0
2018-Feb-09 16:00N 25°48' W 080°15'0 0.0
2018-Feb-09 15:30N 25°48' W 080°15'0 0.0
2018-Feb-09 15:00N 25°48' W 080°15'0 0.0
2018-Feb-09 14:00N 25°48' W 080°15'0 0.0
2018-Feb-09 12:00N 25°48' W 080°15'0 0.0
2018-Feb-09 07:30N 25°48' W 080°15'6 2.8
2018-Feb-09 05:30N 25°46' W 080°09'5 9.3
2018-Feb-09 05:00N 25°46' W 080°04'2010.1
2018-Feb-09 03:00N 25°41' W 079°42'510.2
2018-Feb-09 02:30N 25°39' W 079°37'2 0.1
2018-Feb-08 09:30N 25°40' W 079°39'4 8.4
2018-Feb-08 09:00N 25°41' W 079°44'4 8.3
2018-Feb-08 08:30N 25°42' W 079°48'21 8.3
2018-Feb-08 06:00N 25°46' W 080°11'1 2.6
2018-Feb-08 05:30N 25°46' W 080°12'3 0.7
2018-Feb-08 01:28N 25°48' W 080°15'0 0.0
2018-Feb-08 00:58N 25°48' W 080°15'0 0.0
2018-Feb-08 00:28N 25°48' W 080°15'0 0.0
2018-Feb-07 23:58N 25°48' W 080°15'0 0.0
2018-Feb-07 23:28N 25°48' W 080°15'0 0.0
2018-Feb-07 22:58N 25°48' W 080°15'0 0.0
2018-Feb-07 22:28N 25°48' W 080°15'0 0.0
2018-Feb-07 21:58N 25°48' W 080°15'0 0.0
2018-Feb-07 21:28N 25°48' W 080°15'21 1.8
2018-Feb-07 09:30N 25°48' W 079°52'5 9.5
2018-Feb-07 08:59N 25°48' W 079°46'5 9.8
2018-Feb-07 08:30N 25°49' W 079°41'510.0
2018-Feb-07 08:00N 25°49' W 079°35'510.2
2018-Feb-07 07:29N 25°50' W 079°29'169 7.3
2018-Feb-06 08:19N 24°23' W 076°50'3 9.7
2018-Feb-06 08:00N 24°22' W 076°47'  
Track history (hours):
 
Tides and Currents Weather Stations Pressure Air Temp Water Temp Dewpoint Dewpoint Depression Visibility Wind Speed Wind Dir Waves Ship Positions

M V Legend II

Last reported at 2018-Feb-16 07:43 UTC. Time now 2018-Feb-19 14:19 UTC.
Position N 25°39' W 079°35'.

Length 49 m.

MMSI: 370375000.

Date/timePositionNaut miles runAvg speedWind from/ knotsBaromVisibWave heightAir tempDewpointWater temp
2018-Feb-16 07:43N 25°39' W 079°35'1 6.0
2018-Feb-16 07:29N 25°39' W 079°37'3 6.1
2018-Feb-16 07:00N 25°40' W 079°40'3 6.5
2018-Feb-16 06:29N 25°41' W 079°44'3 6.3
2018-Feb-16 06:00N 25°42' W 079°47'3 5.9
2018-Feb-16 05:30N 25°43' W 079°50'3 5.2
2018-Feb-16 05:00N 25°44' W 079°53'3 5.6
2018-Feb-16 04:30N 25°44' W 079°56'3 5.8
2018-Feb-16 04:00N 25°45' W 079°59'3 5.8
2018-Feb-16 03:30N 25°46' W 080°02'3 6.8
2018-Feb-16 03:01N 25°46' W 080°06'4 7.9
2018-Feb-16 02:30N 25°46' W 080°10'2 3.5
2018-Feb-16 02:01N 25°46' W 080°12'2 3.3
2018-Feb-16 01:31N 25°47' W 080°14'1 2.6
2018-Feb-16 01:00N 25°48' W 080°15'0 0.0
2018-Feb-16 00:31N 25°48' W 080°15'0 0.0
2018-Feb-16 00:00N 25°48' W 080°15'0 0.0
2018-Feb-15 23:31N 25°48' W 080°15'0 0.0
2018-Feb-15 23:00N 25°48' W 080°15'0 0.0
2018-Feb-15 22:30N 25°48' W 080°15'0 0.0
2018-Feb-15 22:00N 25°48' W 080°15'0 0.0
2018-Feb-15 21:30N 25°48' W 080°15'0 0.0
2018-Feb-15 21:00N 25°48' W 080°15'0 0.0
2018-Feb-15 20:30N 25°48' W 080°15'0 0.0
2018-Feb-15 20:01N 25°48' W 080°15'0 0.0
2018-Feb-15 19:30N 25°48' W 080°15'0 0.0
2018-Feb-15 19:00N 25°48' W 080°15'0 0.0
2018-Feb-15 18:31N 25°48' W 080°15'0 0.0
2018-Feb-15 18:00N 25°48' W 080°15'0 0.0
2018-Feb-15 17:30N 25°48' W 080°15'0 0.0
2018-Feb-15 17:00N 25°48' W 080°15'0 0.0
2018-Feb-15 16:30N 25°48' W 080°15'0 0.0
2018-Feb-15 16:00N 25°48' W 080°15'0 0.0
2018-Feb-15 15:30N 25°48' W 080°15'0 0.0
2018-Feb-15 15:01N 25°48' W 080°15'0 0.0
2018-Feb-15 14:31N 25°48' W 080°15'0 0.0
2018-Feb-15 14:00N 25°48' W 080°15'0 0.0
2018-Feb-15 13:31N 25°48' W 080°15'0 0.0
2018-Feb-15 13:00N 25°48' W 080°15'0 0.0
2018-Feb-15 12:30N 25°48' W 080°15'0 0.0
2018-Feb-15 12:01N 25°48' W 080°15'0 0.0
2018-Feb-15 11:30N 25°48' W 080°15'0 0.0
2018-Feb-15 11:00N 25°48' W 080°15'0 0.0
2018-Feb-15 10:31N 25°48' W 080°15'0 0.0
2018-Feb-15 10:01N 25°48' W 080°15'0 0.0
2018-Feb-15 09:31N 25°48' W 080°15'0 0.0
2018-Feb-15 09:00N 25°48' W 080°15'0 0.0
2018-Feb-15 08:30N 25°48' W 080°15'0 0.0
2018-Feb-15 08:00N 25°48' W 080°15'0 0.0
2018-Feb-15 07:30N 25°48' W 080°15'0 0.0
2018-Feb-15 07:00N 25°48' W 080°15'0 0.0
2018-Feb-15 06:31N 25°48' W 080°15'0 0.0
2018-Feb-15 06:00N 25°48' W 080°15'0 0.0
2018-Feb-15 05:30N 25°48' W 080°15'0 0.0
2018-Feb-15 05:00N 25°48' W 080°15'0 0.0
2018-Feb-15 04:30N 25°48' W 080°15'0 0.0
2018-Feb-15 04:00N 25°48' W 080°15'0 0.0
2018-Feb-15 03:30N 25°48' W 080°15'0 0.0
2018-Feb-15 03:01N 25°48' W 080°15'0 0.0
2018-Feb-15 02:30N 25°48' W 080°15'0 0.0
2018-Feb-15 02:00N 25°48' W 080°15'0 0.0
2018-Feb-15 01:30N 25°48' W 080°15'0 0.0
2018-Feb-15 01:00N 25°48' W 080°15'0 0.0
2018-Feb-15 00:31N 25°48' W 080°15'0 0.0
2018-Feb-15 00:01N 25°48' W 080°15'0 0.0
2018-Feb-14 23:31N 25°48' W 080°15'0 0.0
2018-Feb-14 23:00N 25°48' W 080°15'0 0.0
2018-Feb-14 22:31N 25°48' W 080°15'1 1.6
2018-Feb-14 22:01N 25°47' W 080°14'2 3.9
2018-Feb-14 21:31N 25°47' W 080°12'1 2.7
2018-Feb-14 21:01N 25°46' W 080°11'2 3.6
2018-Feb-14 20:31N 25°46' W 080°09'4 8.0
2018-Feb-14 20:01N 25°46' W 080°04'510.0
2018-Feb-14 19:30N 25°47' W 079°59'5 9.9
2018-Feb-14 19:01N 25°47' W 079°53'510.1
2018-Feb-14 18:30N 25°48' W 079°48'510.3
2018-Feb-14 18:00N 25°48' W 079°42'510.5
2018-Feb-14 17:30N 25°49' W 079°36'510.5
2018-Feb-14 17:00N 25°49' W 079°30'189 9.9
2018-Feb-13 21:54N 24°12' W 076°32'4 9.7
2018-Feb-13 21:30N 24°10' W 076°28'1 2.0
2018-Feb-13 21:01N 24°10' W 076°27'0 0.3
2018-Feb-13 20:31N 24°10' W 076°27'0 0.0
2018-Feb-13 20:00N 24°10' W 076°27'0 0.0
2018-Feb-13 19:31N 24°10' W 076°27'0 0.0
2018-Feb-13 19:00N 24°10' W 076°27'0 0.0
2018-Feb-13 18:30N 24°10' W 076°27'0 0.0
2018-Feb-13 18:01N 24°10' W 076°27'0 0.0
2018-Feb-13 17:30N 24°10' W 076°27'0 0.0
2018-Feb-13 17:01N 24°10' W 076°27'0 0.0
2018-Feb-13 16:29N 24°10' W 076°27'0 0.0
2018-Feb-13 16:00N 24°10' W 076°27'0 0.0
2018-Feb-13 15:30N 24°10' W 076°27'0 0.0
2018-Feb-13 15:01N 24°10' W 076°27'0 0.0
2018-Feb-13 14:22N 24°10' W 076°27'0 0.0
2018-Feb-13 14:00N 24°10' W 076°27'0 0.0
2018-Feb-13 13:31N 24°10' W 076°27'0 0.0
2018-Feb-13 12:48N 24°10' W 076°27'0 0.0
2018-Feb-13 12:30N 24°10' W 076°27'0 0.0
2018-Feb-13 12:00N 24°10' W 076°27'0 1.0
2018-Feb-13 11:30N 24°10' W 076°27'1 1.8
2018-Feb-13 11:00N 24°10' W 076°28'0 0.0
2018-Feb-13 10:31N 24°10' W 076°28'0 0.0
2018-Feb-13 10:00N 24°10' W 076°28'0 0.0
2018-Feb-13 09:30N 24°10' W 076°28'0 0.0
2018-Feb-13 09:00N 24°10' W 076°28'0 0.0
2018-Feb-13 08:31N 24°10' W 076°28'0 0.0
2018-Feb-13 08:01N 24°10' W 076°28'0 0.0
2018-Feb-13 07:30N 24°10' W 076°28'0 0.0
2018-Feb-13 07:01N 24°10' W 076°28'0 0.0
2018-Feb-13 06:31N 24°10' W 076°28'0 0.0
2018-Feb-13 06:01N 24°10' W 076°28'0 0.0
2018-Feb-13 05:31N 24°10' W 076°28'0 0.0
2018-Feb-13 05:01N 24°10' W 076°28'0 0.0
2018-Feb-13 04:31N 24°10' W 076°28'0 0.0
2018-Feb-13 04:00N 24°10' W 076°28'0 0.0
2018-Feb-13 03:24N 24°10' W 076°28'0 0.0
2018-Feb-13 03:00N 24°10' W 076°28'0 0.0
2018-Feb-13 02:28N 24°10' W 076°28'0 0.0
2018-Feb-13 01:59N 24°10' W 076°28'0 0.0
2018-Feb-13 01:30N 24°10' W 076°28'0 0.0
2018-Feb-13 01:00N 24°10' W 076°28'5 9.2
2018-Feb-13 00:30N 24°13' W 076°33'4 6.1
2018-Feb-12 23:48N 24°17' W 076°34'3 9.4
2018-Feb-12 23:30N 24°18' W 076°31'  
2018-Feb-10 10:27N 25°39' W 079°35'4 9.0
2018-Feb-10 09:59N 25°40' W 079°40'4 8.3
2018-Feb-10 09:30N 25°41' W 079°44'4 8.1
2018-Feb-10 09:00N 25°42' W 079°48'4 8.1
2018-Feb-10 08:30N 25°43' W 079°53'4 7.9
2018-Feb-10 08:00N 25°44' W 079°57'4 7.7
2018-Feb-10 07:30N 25°45' W 080°01'4 8.6
2018-Feb-10 07:00N 25°46' W 080°06'4 8.7
2018-Feb-10 06:30N 25°46' W 080°11'1 2.6
2018-Feb-10 06:01N 25°46' W 080°12'1 2.4
2018-Feb-10 05:30N 25°47' W 080°13'1 1.9
2018-Feb-10 05:00N 25°47' W 080°14'1 1.9
2018-Feb-10 04:30N 25°48' W 080°15'0 0.0
2018-Feb-10 04:00N 25°48' W 080°15'0 0.0
2018-Feb-10 03:30N 25°48' W 080°15'0 0.0
2018-Feb-10 02:59N 25°48' W 080°15'0 0.0
2018-Feb-10 02:30N 25°48' W 080°15'0 0.0
2018-Feb-10 02:00N 25°48' W 080°15'0 0.0
2018-Feb-10 01:29N 25°48' W 080°15'0 0.0
2018-Feb-10 01:00N 25°48' W 080°15'0 0.0
2018-Feb-10 00:30N 25°48' W 080°15'0 0.0
2018-Feb-10 00:01N 25°48' W 080°15'0 0.0
2018-Feb-09 23:30N 25°48' W 080°15'0 0.0
2018-Feb-09 23:00N 25°48' W 080°15'0 0.0
2018-Feb-09 22:46N 25°48' W 080°15'0 0.0
2018-Feb-09 20:00N 25°48' W 080°15'0 0.0
2018-Feb-09 19:31N 25°48' W 080°15'0 0.0
2018-Feb-09 19:00N 25°48' W 080°15'0 0.0
2018-Feb-09 17:31N 25°48' W 080°15'0 0.0
2018-Feb-09 16:30N 25°48' W 080°15'0 0.0
2018-Feb-09 16:00N 25°48' W 080°15'0 0.0
2018-Feb-09 15:30N 25°48' W 080°15'0 0.0
2018-Feb-09 15:00N 25°48' W 080°15'0 0.0
2018-Feb-09 14:00N 25°48' W 080°15'0 0.0
2018-Feb-09 12:00N 25°48' W 080°15'0 0.0
2018-Feb-09 07:30N 25°48' W 080°15'6 2.8
2018-Feb-09 05:30N 25°46' W 080°09'5 9.3
2018-Feb-09 05:00N 25°46' W 080°04'2010.1
2018-Feb-09 03:00N 25°41' W 079°42'510.2
2018-Feb-09 02:30N 25°39' W 079°37'2 0.1
2018-Feb-08 09:30N 25°40' W 079°39'4 8.4
2018-Feb-08 09:00N 25°41' W 079°44'4 8.3
2018-Feb-08 08:30N 25°42' W 079°48'21 8.3
2018-Feb-08 06:00N 25°46' W 080°11'1 2.6
2018-Feb-08 05:30N 25°46' W 080°12'3 0.7
2018-Feb-08 01:28N 25°48' W 080°15'0 0.0
2018-Feb-08 00:58N 25°48' W 080°15'0 0.0
2018-Feb-08 00:28N 25°48' W 080°15'0 0.0
2018-Feb-07 23:58N 25°48' W 080°15'0 0.0
2018-Feb-07 23:28N 25°48' W 080°15'0 0.0
2018-Feb-07 22:58N 25°48' W 080°15'0 0.0
2018-Feb-07 22:28N 25°48' W 080°15'0 0.0
2018-Feb-07 21:58N 25°48' W 080°15'0 0.0
2018-Feb-07 21:28N 25°48' W 080°15'21 1.8
2018-Feb-07 09:30N 25°48' W 079°52'5 9.5
2018-Feb-07 08:59N 25°48' W 079°46'5 9.8
2018-Feb-07 08:30N 25°49' W 079°41'510.0
2018-Feb-07 08:00N 25°49' W 079°35'510.2
2018-Feb-07 07:29N 25°50' W 079°29'169 7.3
2018-Feb-06 08:19N 24°23' W 076°50'3 9.7
2018-Feb-06 08:00N 24°22' W 076°47'  

Dump ship's entire track history